Atlantic City, NJ (08401)

4:32 PM EDT on September 22, 2017 (GMT -0400)
Seaside Road Beach | | Change Station
Active Advisory: Coastal Hazard Statement Active Notice: Coastal Hazard Statement

Elev 20 ft 39.38 °N, 74.40 °W | Updated 2 seconds ago

Partly Cloudy
Partly Cloudy
80.6 °F
Feels Like 81 °F
N
8.1
Wind Variable Wind from NNW
Gusts 12.5 mph

Today
High -- | Low -- °F
--% Chance of Precip.
Yesterday
High -- | Low -- °F
Precip. -- in
Pressure 29.94 in
Visibility 10.0 miles
Clouds Clear
Heat Index 81 °F
Dew Point 61 °F
Humidity 51%
Rainfall 0.00 in
Snow Depth Not available.
6:45 AM 6:54 PM
Waxing Crescent, 7% visible
METAR KACY 221954Z 32010KT 10SM CLR 27/16 A2994 RMK AO2 SLP137 T02720156
Pressure 29.94 in
Visibility 10.0 miles
Clouds Clear
Heat Index 81 °F
Dew Point 61 °F
Humidity 51%
Rainfall 0.00 in
Snow Depth Not available.
6:45 AM 6:54 PM
Waxing Crescent, 7% visible
METAR KACY 221954Z 32010KT 10SM CLR 27/16 A2994 RMK AO2 SLP137 T02720156

Get Your Daily Forecast Email!

Thanks for signing up!

Be on the lookout for a verification email in your inbox.

You'll start receiving severe weather alerts in your inbox..

×

10-Day Weather Forecast

Almanac

Astronomy

Sep. 22, 2017 Rise Set
Actual Time
Civil Twilight
Nautical Twilight
Astronomical Twilight
Moon
Length of Visible Light
Length of Day
Tomorrow will be .
, % of the Moon is Illuminated

Today's Extremes

State Highs State Lows

Community

WunderPhotos

Category 6

Welcome to Category 6. This is the collective home for Weather Underground's featured writeups by Dr. Jeff Masters (right), Bob Henson (left), Chris Burt, and other regular contributors.

Nearby

Air Quality

  Air Quality AQ Index Pollutant
Not available.

Snow Depth

Station Depth Elevation

Earthquake Activity

City Distance Mag. Time & Date
Minimum magnitude displayed is 2.5.

Coastal Water Temperatures

Place Temperature

Stations

Nearby Weather Stations

Station Location Temp. Windchill Dew Point Humidity Wind Precip. Elev Updated Type
                   

Watches & Warnings

Coastal Hazard Statement
Issued: 3:27 PM EDT Sep. 22, 2017 – National Weather Service

... High rip current risk remains in effect until 10 PM EDT this
evening...
... Coastal flood advisory has expired...

* location... the coasts of southern New Jersey and Delaware.

* Risk of rip currents... high.

* Surf height... 4 to 5 feet.

* Timing and tides... low tide is occuring through 5 PM.

Precautionary/preparedness actions...

Swim near a lifeguard. If caught in a rip current, relax and
float. Do not swim against the current, swim in a direction
following the shoreline. If unable to escape, face the shore and
call or wave for help.